sensor_id;sensor_type;location;lat;lon;timestamp;pressure;altitude;pressure_sealevel;temperature;humidity
24486;BME280;13449;49.374;8.584;2023-05-10T00:01:38;99846.75;;;12.89;95.63
24486;BME280;13449;49.374;8.584;2023-05-10T00:04:04;99844.09;;;12.89;95.69
24486;BME280;13449;49.374;8.584;2023-05-10T00:06:33;99850.22;;;12.90;96.13
24486;BME280;13449;49.374;8.584;2023-05-10T00:09:02;99857.31;;;12.89;95.64
24486;BME280;13449;49.374;8.584;2023-05-10T00:11:31;99850.69;;;12.85;96.11
24486;BME280;13449;49.374;8.584;2023-05-10T00:13:57;99846.38;;;12.84;95.86
24486;BME280;13449;49.374;8.584;2023-05-10T00:16:24;99847.34;;;12.83;95.70
24486;BME280;13449;49.374;8.584;2023-05-10T00:18:51;99850.28;;;12.80;96.09
24486;BME280;13449;49.374;8.584;2023-05-10T00:21:17;99846.97;;;12.78;96.11
24486;BME280;13449;49.374;8.584;2023-05-10T00:23:46;99846.25;;;12.76;96.25
24486;BME280;13449;49.374;8.584;2023-05-10T00:26:13;99854.34;;;12.75;96.17
24486;BME280;13449;49.374;8.584;2023-05-10T00:28:39;99843.22;;;12.71;96.25
24486;BME280;13449;49.374;8.584;2023-05-10T00:31:05;99849.50;;;12.70;96.07
24486;BME280;13449;49.374;8.584;2023-05-10T00:33:32;99839.22;;;12.67;96.14
24486;BME280;13449;49.374;8.584;2023-05-10T00:36:01;99844.81;;;12.64;95.94
24486;BME280;13449;49.374;8.584;2023-05-10T00:38:27;99838.53;;;12.65;96.06
24486;BME280;13449;49.374;8.584;2023-05-10T00:40:54;99841.44;;;12.62;96.05
24486;BME280;13449;49.374;8.584;2023-05-10T00:43:23;99858.28;;;12.61;95.79
24486;BME280;13449;49.374;8.584;2023-05-10T00:45:49;99850.34;;;12.61;96.30
24486;BME280;13449;49.374;8.584;2023-05-10T00:48:16;99852.00;;;12.62;96.03
24486;BME280;13449;49.374;8.584;2023-05-10T00:50:43;99854.81;;;12.60;95.99
24486;BME280;13449;49.374;8.584;2023-05-10T00:53:12;99855.63;;;12.61;96.37
24486;BME280;13449;49.374;8.584;2023-05-10T00:55:38;99854.81;;;12.60;96.05
24486;BME280;13449;49.374;8.584;2023-05-10T00:58:05;99861.06;;;12.59;96.22
24486;BME280;13449;49.374;8.584;2023-05-10T01:00:32;99860.91;;;12.61;96.24
24486;BME280;13449;49.374;8.584;2023-05-10T01:02:59;99861.91;;;12.60;96.27
24486;BME280;13449;49.374;8.584;2023-05-10T01:05:26;99861.22;;;12.58;96.23
24486;BME280;13449;49.374;8.584;2023-05-10T01:07:53;99854.28;;;12.57;96.24
24486;BME280;13449;49.374;8.584;2023-05-10T01:10:20;99854.41;;;12.55;96.45
24486;BME280;13449;49.374;8.584;2023-05-10T01:12:51;99855.56;;;12.53;96.42
24486;BME280;13449;49.374;8.584;2023-05-10T01:15:20;99856.81;;;12.49;96.23
24486;BME280;13449;49.374;8.584;2023-05-10T01:17:49;99859.03;;;12.44;96.36
24486;BME280;13449;49.374;8.584;2023-05-10T01:20:15;99863.50;;;12.43;96.45
24486;BME280;13449;49.374;8.584;2023-05-10T01:23:00;99858.78;;;12.47;96.53
24486;BME280;13449;49.374;8.584;2023-05-10T01:34:12;99865.56;;;12.49;96.38
24486;BME280;13449;49.374;8.584;2023-05-10T01:37:06;99862.09;;;12.49;96.64
24486;BME280;13449;49.374;8.584;2023-05-10T01:40:01;99863.19;;;12.46;96.61
24486;BME280;13449;49.374;8.584;2023-05-10T01:42:35;99867.66;;;12.46;96.75
24486;BME280;13449;49.374;8.584;2023-05-10T01:45:21;99873.22;;;12.43;96.57
24486;BME280;13449;49.374;8.584;2023-05-10T01:48:09;99874.88;;;12.44;96.66
24486;BME280;13449;49.374;8.584;2023-05-10T01:50:38;99879.34;;;12.43;96.46
24486;BME280;13449;49.374;8.584;2023-05-10T01:53:08;99873.38;;;12.41;96.72
24486;BME280;13449;49.374;8.584;2023-05-10T01:55:41;99866.03;;;12.35;96.29
24486;BME280;13449;49.374;8.584;2023-05-10T01:58:14;99875.91;;;12.33;96.61
24486;BME280;13449;49.374;8.584;2023-05-10T02:00:44;99871.72;;;12.30;96.67
24486;BME280;13449;49.374;8.584;2023-05-10T02:03:13;99869.09;;;12.30;96.59
24486;BME280;13449;49.374;8.584;2023-05-10T02:05:45;99877.97;;;12.29;96.48
24486;BME280;13449;49.374;8.584;2023-05-10T02:08:13;99882.44;;;12.29;96.27
24486;BME280;13449;49.374;8.584;2023-05-10T02:10:41;99880.63;;;12.29;96.63
24486;BME280;13449;49.374;8.584;2023-05-10T02:13:10;99884.25;;;12.28;96.35
24486;BME280;13449;49.374;8.584;2023-05-10T02:15:41;99886.06;;;12.28;96.37
24486;BME280;13449;49.374;8.584;2023-05-10T02:18:09;99888.44;;;12.21;96.29
24486;BME280;13449;49.374;8.584;2023-05-10T02:20:37;99886.78;;;12.20;96.28
24486;BME280;13449;49.374;8.584;2023-05-10T02:23:05;99889.41;;;12.20;96.49
24486;BME280;13449;49.374;8.584;2023-05-10T02:25:32;99900.81;;;12.21;96.28
24486;BME280;13449;49.374;8.584;2023-05-10T02:28:02;99901.63;;;12.21;96.21
24486;BME280;13449;49.374;8.584;2023-05-10T02:30:32;99904.56;;;12.18;96.65
24486;BME280;13449;49.374;8.584;2023-05-10T02:33:04;99904.44;;;12.20;96.57
24486;BME280;13449;49.374;8.584;2023-05-10T02:35:32;99902.75;;;12.19;96.49
24486;BME280;13449;49.374;8.584;2023-05-10T02:38:03;99914.16;;;12.19;96.10
24486;BME280;13449;49.374;8.584;2023-05-10T02:40:32;99909.16;;;12.16;96.50
24486;BME280;13449;49.374;8.584;2023-05-10T02:43:01;99896.94;;;12.15;96.59
24486;BME280;13449;49.374;8.584;2023-05-10T02:45:31;99896.94;;;12.15;96.62
24486;BME280;13449;49.374;8.584;2023-05-10T02:47:58;99904.84;;;12.15;96.62
24486;BME280;13449;49.374;8.584;2023-05-10T02:50:27;99903.88;;;12.16;96.37
24486;BME280;13449;49.374;8.584;2023-05-10T02:53:00;99905.53;;;12.17;96.63
24486;BME280;13449;49.374;8.584;2023-05-10T02:55:35;99910.81;;;12.17;96.79
24486;BME280;13449;49.374;8.584;2023-05-10T02:58:03;99910.53;;;12.20;96.59
24486;BME280;13449;49.374;8.584;2023-05-10T03:00:32;99912.34;;;12.20;96.97
24486;BME280;13449;49.374;8.584;2023-05-10T03:03:01;99907.91;;;12.20;96.69
24486;BME280;13449;49.374;8.584;2023-05-10T03:05:28;99905.53;;;12.17;96.69
24486;BME280;13449;49.374;8.584;2023-05-10T03:07:55;99901.94;;;12.18;96.69
24486;BME280;13449;49.374;8.584;2023-05-10T03:10:29;99906.53;;;12.16;96.45
24486;BME280;13449;49.374;8.584;2023-05-10T03:13:07;99893.31;;;12.16;96.79
24486;BME280;13449;49.374;8.584;2023-05-10T03:18:34;99903.88;;;12.16;96.41
24486;BME280;13449;49.374;8.584;2023-05-10T03:21:04;99898.03;;;12.13;96.70
24486;BME280;13449;49.374;8.584;2023-05-10T03:23:35;99906.94;;;12.12;96.38
24486;BME280;13449;49.374;8.584;2023-05-10T03:26:07;99913.31;;;12.09;96.39
24486;BME280;13449;49.374;8.584;2023-05-10T03:28:35;99913.31;;;12.09;96.49
24486;BME280;13449;49.374;8.584;2023-05-10T03:31:04;99920.25;;;12.10;96.57
24486;BME280;13449;49.374;8.584;2023-05-10T03:33:31;99919.97;;;12.13;96.56
24486;BME280;13449;49.374;8.584;2023-05-10T03:35:58;99919.97;;;12.13;96.66
24486;BME280;13449;49.374;8.584;2023-05-10T03:38:25;99926.94;;;12.14;96.72
24486;BME280;13449;49.374;8.584;2023-05-10T03:40:51;99923.34;;;12.15;96.76
24486;BME280;13449;49.374;8.584;2023-05-10T03:43:18;99926.25;;;12.12;96.59
24486;BME280;13449;49.374;8.584;2023-05-10T03:45:44;99918.59;;;12.09;96.30
24486;BME280;13449;49.374;8.584;2023-05-10T03:48:13;99925.16;;;12.05;96.77
24486;BME280;13449;49.374;8.584;2023-05-10T03:50:40;99918.63;;;11.99;96.48
24486;BME280;13449;49.374;8.584;2023-05-10T03:53:06;99927.91;;;11.94;96.39
24486;BME280;13449;49.374;8.584;2023-05-10T03:55:33;99930.84;;;11.91;97.00
24486;BME280;13449;49.374;8.584;2023-05-10T03:58:02;99919.59;;;11.89;96.64
24486;BME280;13449;49.374;8.584;2023-05-10T04:00:28;99924.47;;;11.84;96.90
24486;BME280;13449;49.374;8.584;2023-05-10T04:02:55;99933.59;;;11.80;96.98
24486;BME280;13449;49.374;8.584;2023-05-10T04:05:24;99928.59;;;11.77;96.77
24486;BME280;13449;49.374;8.584;2023-05-10T04:07:50;99941.09;;;11.75;96.96
24486;BME280;13449;49.374;8.584;2023-05-10T04:10:17;99949.28;;;11.72;96.49
24486;BME280;13449;49.374;8.584;2023-05-10T04:12:44;99949.56;;;11.68;96.93
24486;BME280;13449;49.374;8.584;2023-05-10T04:15:11;99948.97;;;11.65;96.80
24486;BME280;13449;49.374;8.584;2023-05-10T04:17:37;99957.88;;;11.64;96.61
24486;BME280;13449;49.374;8.584;2023-05-10T04:20:04;99952.88;;;11.61;96.42
24486;BME280;13449;49.374;8.584;2023-05-10T04:22:31;99963.56;;;11.59;96.48
24486;BME280;13449;49.374;8.584;2023-05-10T04:24:58;99959.94;;;11.60;97.01
24486;BME280;13449;49.374;8.584;2023-05-10T04:27:24;99953.00;;;11.59;96.62
24486;BME280;13449;49.374;8.584;2023-05-10T04:29:51;99951.63;;;11.55;96.94
24486;BME280;13449;49.374;8.584;2023-05-10T04:32:17;99958.56;;;11.56;97.13
24486;BME280;13449;49.374;8.584;2023-05-10T04:34:47;99957.44;;;11.59;96.82
24486;BME280;13449;49.374;8.584;2023-05-10T04:37:13;99957.44;;;11.59;96.77
24486;BME280;13449;49.374;8.584;2023-05-10T04:39:40;99967.44;;;11.65;97.12
24486;BME280;13449;49.374;8.584;2023-05-10T04:42:07;99957.72;;;11.65;97.05
24486;BME280;13449;49.374;8.584;2023-05-10T04:44:34;99956.38;;;11.71;97.14
24486;BME280;13449;49.374;8.584;2023-05-10T04:47:01;99955.25;;;11.74;97.03
24486;BME280;13449;49.374;8.584;2023-05-10T04:49:29;99963.84;;;11.76;97.27
24486;BME280;13449;49.374;8.584;2023-05-10T04:51:55;99962.88;;;11.77;96.76
24486;BME280;13449;49.374;8.584;2023-05-10T04:54:24;99954.00;;;11.78;96.91
24486;BME280;13449;49.374;8.584;2023-05-10T04:56:51;99963.31;;;11.82;97.21
24486;BME280;13449;49.374;8.584;2023-05-10T04:59:19;99959.47;;;11.86;96.88
24486;BME280;13449;49.374;8.584;2023-05-10T05:01:46;99964.47;;;11.89;97.03
24486;BME280;13449;49.374;8.584;2023-05-10T05:04:13;99971.13;;;11.93;97.32
24486;BME280;13449;49.374;8.584;2023-05-10T05:06:40;99953.34;;;11.95;97.53
24486;BME280;13449;49.374;8.584;2023-05-10T05:09:07;99955.69;;;11.98;97.23
24486;BME280;13449;49.374;8.584;2023-05-10T05:11:36;99964.34;;;12.00;96.89
24486;BME280;13449;49.374;8.584;2023-05-10T05:14:02;99968.06;;;12.07;97.36
24486;BME280;13449;49.374;8.584;2023-05-10T05:16:30;99977.91;;;12.15;97.06
24486;BME280;13449;49.374;8.584;2023-05-10T05:18:57;99979.47;;;12.17;96.79
24486;BME280;13449;49.374;8.584;2023-05-10T05:21:23;99977.78;;;12.26;97.09
24486;BME280;13449;49.374;8.584;2023-05-10T05:23:51;99978.34;;;12.29;97.34
24486;BME280;13449;49.374;8.584;2023-05-10T05:26:17;99979.75;;;12.34;96.79
24486;BME280;13449;49.374;8.584;2023-05-10T05:28:44;99986.13;;;12.41;97.09
24486;BME280;13449;49.374;8.584;2023-05-10T05:31:11;99983.88;;;12.46;96.95
24486;BME280;13449;49.374;8.584;2023-05-10T05:33:38;99983.63;;;12.49;97.27
24486;BME280;13449;49.374;8.584;2023-05-10T05:36:05;99980.00;;;12.50;97.03
24486;BME280;13449;49.374;8.584;2023-05-10T05:38:31;99983.03;;;12.55;96.95
24486;BME280;13449;49.374;8.584;2023-05-10T05:40:58;99994.69;;;12.62;96.95
24486;BME280;13449;49.374;8.584;2023-05-10T05:43:24;99994.84;;;12.70;97.06
24486;BME280;13449;49.374;8.584;2023-05-10T05:45:57;99990.78;;;12.76;96.76
24486;BME280;13449;49.374;8.584;2023-05-10T05:48:24;99978.25;;;12.78;97.07
24486;BME280;13449;49.374;8.584;2023-05-10T05:50:54;99994.00;;;12.79;96.86
24486;BME280;13449;49.374;8.584;2023-05-10T05:53:24;99992.44;;;12.86;96.67
24486;BME280;13449;49.374;8.584;2023-05-10T05:55:54;99994.47;;;12.93;96.87
24486;BME280;13449;49.374;8.584;2023-05-10T05:58:22;100002.16;;;12.96;96.66
24486;BME280;13449;49.374;8.584;2023-05-10T06:00:49;100005.78;;;12.95;96.47
24486;BME280;13449;49.374;8.584;2023-05-10T06:03:15;100008.97;;;12.98;96.16
24486;BME280;13449;49.374;8.584;2023-05-10T06:05:42;100016.88;;;12.98;96.47
24486;BME280;13449;49.374;8.584;2023-05-10T06:08:08;100017.13;;;13.05;96.41
24486;BME280;13449;49.374;8.584;2023-05-10T06:10:35;100024.28;;;12.95;95.96
24486;BME280;13449;49.374;8.584;2023-05-10T06:13:02;100027.63;;;12.97;96.17
24486;BME280;13449;49.374;8.584;2023-05-10T06:15:29;100026.63;;;12.98;95.96
24486;BME280;13449;49.374;8.584;2023-05-10T06:17:59;100035.25;;;13.00;96.00
24486;BME280;13449;49.374;8.584;2023-05-10T06:20:25;100032.16;;;13.04;95.47
24486;BME280;13449;49.374;8.584;2023-05-10T06:22:52;100031.47;;;13.12;95.74
24486;BME280;13449;49.374;8.584;2023-05-10T06:25:18;100033.81;;;13.15;95.75
24486;BME280;13449;49.374;8.584;2023-05-10T06:27:45;100045.78;;;13.19;95.91
24486;BME280;13449;49.374;8.584;2023-05-10T06:30:18;100041.47;;;13.28;95.41
24486;BME280;13449;49.374;8.584;2023-05-10T06:32:44;100049.63;;;13.34;95.40
24486;BME280;13449;49.374;8.584;2023-05-10T06:35:11;100052.00;;;13.37;95.62
24486;BME280;13449;49.374;8.584;2023-05-10T06:37:38;100042.69;;;13.33;95.29
24486;BME280;13449;49.374;8.584;2023-05-10T06:40:06;100047.69;;;13.36;95.27
24486;BME280;13449;49.374;8.584;2023-05-10T06:42:32;100052.00;;;13.37;95.34
24486;BME280;13449;49.374;8.584;2023-05-10T06:44:59;100050.75;;;13.41;95.19
24486;BME280;13449;49.374;8.584;2023-05-10T06:47:25;100052.09;;;13.45;95.15
24486;BME280;13449;49.374;8.584;2023-05-10T06:49:52;100052.81;;;13.38;94.88
24486;BME280;13449;49.374;8.584;2023-05-10T06:52:18;100058.25;;;13.36;94.96
24486;BME280;13449;49.374;8.584;2023-05-10T06:54:47;100046.31;;;13.32;95.01
24486;BME280;13449;49.374;8.584;2023-05-10T06:57:16;100055.53;;;13.28;94.92
24486;BME280;13449;49.374;8.584;2023-05-10T06:59:58;100062.47;;;13.29;95.00
24486;BME280;13449;49.374;8.584;2023-05-10T07:02:24;100053.84;;;13.27;95.16
24486;BME280;13449;49.374;8.584;2023-05-10T07:04:51;100061.06;;;13.25;95.21
24486;BME280;13449;49.374;8.584;2023-05-10T07:07:18;100061.06;;;13.25;95.04
24486;BME280;13449;49.374;8.584;2023-05-10T07:09:45;100061.66;;;13.19;95.13
24486;BME280;13449;49.374;8.584;2023-05-10T07:12:11;100071.66;;;13.25;95.44
24486;BME280;13449;49.374;8.584;2023-05-10T07:14:41;100059.94;;;13.37;95.06
24486;BME280;13449;49.374;8.584;2023-05-10T07:17:08;100072.81;;;13.50;95.31
24486;BME280;13449;49.374;8.584;2023-05-10T07:19:35;100065.88;;;13.49;95.01
24486;BME280;13449;49.374;8.584;2023-05-10T07:22:02;100074.00;;;13.65;94.84
24486;BME280;13449;49.374;8.584;2023-05-10T07:24:28;100069.84;;;13.63;94.70
24486;BME280;13449;49.374;8.584;2023-05-10T07:26:57;100069.25;;;13.69;94.42
24486;BME280;13449;49.374;8.584;2023-05-10T07:29:26;100066.59;;;13.69;93.99
24486;BME280;13449;49.374;8.584;2023-05-10T07:31:52;100072.00;;;13.77;94.31
24486;BME280;13449;49.374;8.584;2023-05-10T07:34:22;100063.63;;;13.82;94.09
24486;BME280;13449;49.374;8.584;2023-05-10T07:36:48;100055.78;;;13.90;93.73
24486;BME280;13449;49.374;8.584;2023-05-10T07:39:15;100057.78;;;14.05;93.54
24486;BME280;13449;49.374;8.584;2023-05-10T07:41:52;100049.69;;;14.25;92.86
24486;BME280;13449;49.374;8.584;2023-05-10T07:44:19;100053.78;;;14.37;92.42
24486;BME280;13449;49.374;8.584;2023-05-10T07:46:48;100056.88;;;14.50;92.34
24486;BME280;13449;49.374;8.584;2023-05-10T07:49:15;100058.41;;;14.71;92.08
24486;BME280;13449;49.374;8.584;2023-05-10T07:51:42;100058.72;;;14.67;90.74
24486;BME280;13449;49.374;8.584;2023-05-10T07:54:08;100056.59;;;14.71;89.81
24486;BME280;13449;49.374;8.584;2023-05-10T07:56:35;100063.75;;;14.79;89.34
24486;BME280;13449;49.374;8.584;2023-05-10T07:59:06;100063.66;;;14.88;88.70
24486;BME280;13449;49.374;8.584;2023-05-10T08:01:36;100068.56;;;15.01;89.35
24486;BME280;13449;49.374;8.584;2023-05-10T08:04:02;100069.59;;;15.08;88.66
24486;BME280;13449;49.374;8.584;2023-05-10T08:06:29;100070.06;;;15.04;87.52
24486;BME280;13449;49.374;8.584;2023-05-10T08:08:56;100072.91;;;15.10;88.01
24486;BME280;13449;49.374;8.584;2023-05-10T08:11:25;100060.03;;;15.15;86.90
24486;BME280;13449;49.374;8.584;2023-05-10T08:13:56;100073.25;;;15.33;87.98
24486;BME280;13449;49.374;8.584;2023-05-10T08:16:22;100072.28;;;15.42;87.72
24486;BME280;13449;49.374;8.584;2023-05-10T08:18:49;100070.69;;;15.57;87.00
24486;BME280;13449;49.374;8.584;2023-05-10T08:21:19;100068.31;;;15.72;86.39
24486;BME280;13449;49.374;8.584;2023-05-10T08:23:45;100075.34;;;15.90;86.77
24486;BME280;13449;49.374;8.584;2023-05-10T08:26:13;100070.44;;;16.11;86.59
24486;BME280;13449;49.374;8.584;2023-05-10T08:28:40;100069.09;;;16.23;84.54
24486;BME280;13449;49.374;8.584;2023-05-10T08:31:06;100070.47;;;16.27;83.32
24486;BME280;13449;49.374;8.584;2023-05-10T08:33:33;100059.50;;;16.38;82.53
24486;BME280;13449;49.374;8.584;2023-05-10T08:36:00;100060.13;;;16.16;81.79
24486;BME280;13449;49.374;8.584;2023-05-10T08:38:26;100058.13;;;16.10;81.28
24486;BME280;13449;49.374;8.584;2023-05-10T08:40:54;100060.44;;;15.97;82.28
24486;BME280;13449;49.374;8.584;2023-05-10T08:43:28;100059.72;;;15.78;81.28
24486;BME280;13449;49.374;8.584;2023-05-10T08:45:55;100072.94;;;15.62;83.48
24486;BME280;13449;49.374;8.584;2023-05-10T08:48:24;100064.53;;;15.49;82.16
24486;BME280;13449;49.374;8.584;2023-05-10T08:50:53;100082.06;;;15.42;83.84
24486;BME280;13449;49.374;8.584;2023-05-10T08:53:23;100086.34;;;15.35;84.05
24486;BME280;13449;49.374;8.584;2023-05-10T08:55:51;100085.63;;;15.24;83.56
24486;BME280;13449;49.374;8.584;2023-05-10T08:58:19;100083.75;;;15.17;82.93
24486;BME280;13449;49.374;8.584;2023-05-10T09:00:48;100085.47;;;15.00;83.33
24486;BME280;13449;49.374;8.584;2023-05-10T09:03:15;100096.91;;;14.83;83.93
24486;BME280;13449;49.374;8.584;2023-05-10T09:05:41;100098.75;;;14.64;84.22
24486;BME280;13449;49.374;8.584;2023-05-10T09:08:08;100091.06;;;14.53;83.97
24486;BME280;13449;49.374;8.584;2023-05-10T09:10:36;100089.31;;;14.44;81.68
24486;BME280;13449;49.374;8.584;2023-05-10T09:13:04;100095.03;;;14.39;83.30
24486;BME280;13449;49.374;8.584;2023-05-10T09:15:31;100092.97;;;14.33;83.74
24486;BME280;13449;49.374;8.584;2023-05-10T09:17:57;100090.31;;;14.33;83.98
24486;BME280;13449;49.374;8.584;2023-05-10T09:20:26;100097.25;;;14.44;84.51
24486;BME280;13449;49.374;8.584;2023-05-10T09:22:55;100105.50;;;14.59;84.63
24486;BME280;13449;49.374;8.584;2023-05-10T09:25:21;100104.81;;;14.75;84.31
24486;BME280;13449;49.374;8.584;2023-05-10T09:27:51;100085.72;;;14.89;81.15
24486;BME280;13449;49.374;8.584;2023-05-10T09:30:28;100090.19;;;15.14;81.83
24486;BME280;13449;49.374;8.584;2023-05-10T09:32:55;100093.84;;;15.39;82.85
24486;BME280;13449;49.374;8.584;2023-05-10T09:35:24;100098.22;;;15.48;81.43
24486;BME280;13449;49.374;8.584;2023-05-10T09:37:58;100089.44;;;15.56;80.00
24486;BME280;13449;49.374;8.584;2023-05-10T09:40:27;100095.81;;;15.63;81.51
24486;BME280;13449;49.374;8.584;2023-05-10T09:42:56;100096.56;;;15.81;80.76
24486;BME280;13449;49.374;8.584;2023-05-10T09:45:24;100099.31;;;16.14;80.57
24486;BME280;13449;49.374;8.584;2023-05-10T09:47:51;100098.06;;;16.42;79.26
24486;BME280;13449;49.374;8.584;2023-05-10T09:50:19;100092.06;;;16.40;78.32
24486;BME280;13449;49.374;8.584;2023-05-10T09:58:02;100096.94;;;16.69;77.12
24486;BME280;13449;49.374;8.584;2023-05-10T10:00:35;100087.59;;;16.65;75.51
24486;BME280;13449;49.374;8.584;2023-05-10T10:03:02;100076.81;;;16.59;72.95
24486;BME280;13449;49.374;8.584;2023-05-10T10:05:35;100089.47;;;16.73;76.30
24486;BME280;13449;49.374;8.584;2023-05-10T10:08:05;100098.28;;;16.82;75.81
24486;BME280;13449;49.374;8.584;2023-05-10T10:10:33;100092.13;;;16.73;75.24
24486;BME280;13449;49.374;8.584;2023-05-10T10:13:02;100093.41;;;16.53;76.34
24486;BME280;13449;49.374;8.584;2023-05-10T10:15:29;100087.22;;;16.20;75.31
24486;BME280;13449;49.374;8.584;2023-05-10T10:17:56;100102.94;;;15.97;76.45
24486;BME280;13449;49.374;8.584;2023-05-10T10:20:23;100094.34;;;15.69;74.74
24486;BME280;13449;49.374;8.584;2023-05-10T10:22:50;100091.69;;;15.43;74.67
24486;BME280;13449;49.374;8.584;2023-05-10T10:25:17;100111.94;;;15.44;76.38
24486;BME280;13449;49.374;8.584;2023-05-10T10:35:42;100116.88;;;15.39;76.41
24486;BME280;13449;49.374;8.584;2023-05-10T10:38:12;100113.72;;;15.61;75.28
24486;BME280;13449;49.374;8.584;2023-05-10T10:40:39;100102.53;;;15.83;74.43
24486;BME280;13449;49.374;8.584;2023-05-10T10:43:26;100099.97;;;16.08;72.98
24486;BME280;13449;49.374;8.584;2023-05-10T10:46:15;100078.41;;;16.19;70.00
24486;BME280;13449;49.374;8.584;2023-05-10T10:49:09;100090.59;;;16.46;71.93
24486;BME280;13449;49.374;8.584;2023-05-10T10:51:37;100083.47;;;16.79;70.15
24486;BME280;13449;49.374;8.584;2023-05-10T10:54:13;100057.88;;;16.94;67.06
24486;BME280;13449;49.374;8.584;2023-05-10T10:57:12;100049.53;;;16.97;66.16
24486;BME280;13449;49.374;8.584;2023-05-10T10:59:42;100059.75;;;17.41;68.20
24486;BME280;13449;49.374;8.584;2023-05-10T11:02:10;100078.31;;;17.74;69.68
24486;BME280;13449;49.374;8.584;2023-05-10T11:04:43;100069.78;;;17.86;68.70
24486;BME280;13449;49.374;8.584;2023-05-10T11:07:16;100048.66;;;18.08;66.17
24486;BME280;13449;49.374;8.584;2023-05-10T11:09:43;100052.81;;;18.10;65.77
24486;BME280;13449;49.374;8.584;2023-05-10T11:12:12;100058.09;;;17.87;66.30
24486;BME280;13449;49.374;8.584;2023-05-10T11:14:39;100065.66;;;17.67;64.93
24486;BME280;13449;49.374;8.584;2023-05-10T11:17:26;100079.22;;;17.42;67.46
24486;BME280;13449;49.374;8.584;2023-05-10T11:20:09;100081.72;;;17.43;68.20
24486;BME280;13449;49.374;8.584;2023-05-10T11:22:50;100082.75;;;17.26;67.20
24486;BME280;13449;49.374;8.584;2023-05-10T11:25:23;100094.09;;;17.03;68.80
24486;BME280;13449;49.374;8.584;2023-05-10T11:27:52;100079.78;;;17.13;66.62
24486;BME280;13449;49.374;8.584;2023-05-10T11:30:19;100098.06;;;17.16;69.69
24486;BME280;13449;49.374;8.584;2023-05-10T11:32:46;100087.78;;;17.21;67.85
24486;BME280;13449;49.374;8.584;2023-05-10T11:35:15;100110.03;;;17.36;71.73
24486;BME280;13449;49.374;8.584;2023-05-10T11:37:41;100100.34;;;17.35;69.47
24486;BME280;13449;49.374;8.584;2023-05-10T11:40:10;100105.38;;;17.38;68.88
24486;BME280;13449;49.374;8.584;2023-05-10T11:42:37;100099.69;;;17.41;67.20
24486;BME280;13449;49.374;8.584;2023-05-10T11:45:08;100116.41;;;17.66;70.28
24486;BME280;13449;49.374;8.584;2023-05-10T11:47:38;100098.44;;;17.76;67.04
24486;BME280;13449;49.374;8.584;2023-05-10T11:50:08;100112.06;;;17.81;68.28
24486;BME280;13449;49.374;8.584;2023-05-10T11:52:38;100104.19;;;17.96;66.92
24486;BME280;13449;49.374;8.584;2023-05-10T11:55:10;100092.97;;;18.09;65.68
24486;BME280;13449;49.374;8.584;2023-05-10T11:57:37;100099.09;;;18.40;67.28
24486;BME280;13449;49.374;8.584;2023-05-10T12:00:05;100086.03;;;18.31;64.78
24486;BME280;13449;49.374;8.584;2023-05-10T12:02:32;100087.88;;;18.22;64.29
24486;BME280;13449;49.374;8.584;2023-05-10T12:05:01;100088.84;;;17.98;64.24
24486;BME280;13449;49.374;8.584;2023-05-10T12:07:28;100106.53;;;17.99;67.51
24486;BME280;13449;49.374;8.584;2023-05-10T12:10:12;100109.56;;;17.88;66.06
24486;BME280;13449;49.374;8.584;2023-05-10T12:12:46;100100.41;;;17.82;64.14
24486;BME280;13449;49.374;8.584;2023-05-10T12:15:19;100111.56;;;17.86;65.32
24486;BME280;13449;49.374;8.584;2023-05-10T12:17:46;100111.59;;;17.78;64.63
24486;BME280;13449;49.374;8.584;2023-05-10T12:22:50;100111.75;;;17.76;65.22
24486;BME280;13449;49.374;8.584;2023-05-10T12:25:21;100115.97;;;17.71;64.42
24486;BME280;13449;49.374;8.584;2023-05-10T12:27:52;100110.94;;;17.76;65.13
24486;BME280;13449;49.374;8.584;2023-05-10T12:30:26;100112.94;;;17.74;64.21
24486;BME280;13449;49.374;8.584;2023-05-10T12:32:54;100099.56;;;17.82;63.91
24486;BME280;13449;49.374;8.584;2023-05-10T12:35:25;100082.78;;;17.65;59.73
24486;BME280;13449;49.374;8.584;2023-05-10T12:37:52;100118.25;;;17.65;64.07
24486;BME280;13449;49.374;8.584;2023-05-10T12:40:19;100109.94;;;17.77;64.62
24486;BME280;13449;49.374;8.584;2023-05-10T12:42:46;100113.41;;;17.85;62.87
24486;BME280;13449;49.374;8.584;2023-05-10T12:45:13;100094.34;;;17.96;61.18
24486;BME280;13449;49.374;8.584;2023-05-10T12:47:40;100115.25;;;18.16;63.19
24486;BME280;13449;49.374;8.584;2023-05-10T12:50:12;100117.66;;;18.34;64.13
24486;BME280;13449;49.374;8.584;2023-05-10T12:52:38;100097.38;;;18.24;60.30
24486;BME280;13449;49.374;8.584;2023-05-10T12:55:05;100113.88;;;18.51;64.51
24486;BME280;13449;49.374;8.584;2023-05-10T12:57:32;100089.63;;;18.38;60.20
24486;BME280;13449;49.374;8.584;2023-05-10T12:59:59;100097.16;;;18.34;61.45
24486;BME280;13449;49.374;8.584;2023-05-10T13:02:30;100085.22;;;18.45;59.56
24486;BME280;13449;49.374;8.584;2023-05-10T13:04:57;100092.19;;;18.54;61.44
24486;BME280;13449;49.374;8.584;2023-05-10T13:07:28;100102.31;;;18.59;62.76
24486;BME280;13449;49.374;8.584;2023-05-10T13:09:55;100077.09;;;18.61;58.30
24486;BME280;13449;49.374;8.584;2023-05-10T13:12:21;100089.13;;;18.65;59.48
24486;BME280;13449;49.374;8.584;2023-05-10T13:14:48;100091.44;;;18.60;58.74
24486;BME280;13449;49.374;8.584;2023-05-10T13:17:14;100095.50;;;18.56;59.96
24486;BME280;13449;49.374;8.584;2023-05-10T13:19:41;100075.81;;;18.57;56.65
24486;BME280;13449;49.374;8.584;2023-05-10T13:22:07;100088.59;;;18.62;60.78
24486;BME280;13449;49.374;8.584;2023-05-10T13:24:34;100060.28;;;18.61;54.28
24486;BME280;13449;49.374;8.584;2023-05-10T13:27:09;100072.59;;;18.62;57.40
24486;BME280;13449;49.374;8.584;2023-05-10T13:29:35;100079.13;;;18.59;57.56
24486;BME280;13449;49.374;8.584;2023-05-10T13:32:02;100068.22;;;18.46;56.12